createdAt,value
2022-11-17T00:00:34.729Z,14.64
2022-11-17T00:03:01.357Z,14.64
2022-11-17T00:05:28.081Z,14.66
2022-11-17T00:07:54.709Z,14.67
2022-11-17T00:10:21.423Z,14.68
2022-11-17T00:13:06.553Z,14.69
2022-11-17T00:15:33.341Z,14.70
2022-11-17T00:18:18.615Z,14.71
2022-11-17T00:21:03.917Z,14.71
2022-11-17T00:23:50.075Z,14.72
2022-11-17T00:26:28.242Z,14.72
2022-11-17T00:28:57.203Z,14.72
2022-11-17T00:31:44.181Z,14.72
2022-11-17T00:34:14.335Z,14.72
2022-11-17T00:36:43.660Z,14.72
2022-11-17T00:39:11.521Z,14.74
2022-11-17T00:41:38.404Z,14.74
2022-11-17T00:44:05.514Z,14.75
2022-11-17T00:46:33.265Z,14.76
2022-11-17T00:49:00.141Z,14.75
2022-11-17T00:51:27.250Z,14.76
2022-11-17T00:53:53.894Z,14.78
2022-11-17T00:56:20.679Z,14.78
2022-11-17T00:58:47.405Z,14.79
2022-11-17T01:01:14.446Z,14.79
2022-11-17T01:03:41.191Z,14.80
2022-11-17T01:06:11.316Z,14.81
2022-11-17T01:08:38.342Z,14.84
2022-11-17T01:11:11.022Z,14.84
2022-11-17T01:13:38.826Z,14.85
2022-11-17T01:16:11.622Z,14.84
2022-11-17T01:18:38.998Z,14.86
2022-11-17T01:21:16.195Z,14.87
2022-11-17T01:23:44.114Z,14.87
2022-11-17T01:26:13.109Z,14.88
2022-11-17T01:28:40.578Z,14.91
2022-11-17T01:31:10.985Z,14.90
2022-11-17T01:33:37.993Z,14.90
2022-11-17T01:36:07.211Z,14.91
2022-11-17T01:38:34.576Z,14.92
2022-11-17T01:41:02.619Z,14.94
2022-11-17T01:43:45.615Z,14.95
2022-11-17T01:46:32.636Z,14.96
2022-11-17T01:49:11.902Z,14.96
2022-11-17T01:51:44.288Z,14.96
2022-11-17T01:54:11.510Z,14.98
2022-11-17T01:56:41.675Z,14.98
2022-11-17T01:59:17.148Z,15.00
2022-11-17T02:01:55.845Z,15.03
2022-11-17T02:04:26.216Z,15.05
2022-11-17T02:07:15.328Z,15.06
2022-11-17T02:09:42.760Z,15.07
2022-11-17T02:12:10.809Z,15.08
2022-11-17T02:14:38.286Z,15.06
2022-11-17T02:17:13.131Z,15.07
2022-11-17T02:19:43.268Z,15.07
2022-11-17T02:22:35.874Z,15.08
2022-11-17T02:25:13.015Z,15.07
2022-11-17T02:27:52.102Z,15.10
2022-11-17T02:30:27.579Z,15.09
2022-11-17T02:33:02.921Z,15.09
2022-11-17T02:36:00.585Z,15.10
2022-11-17T02:38:32.722Z,15.10
2022-11-17T02:41:10.066Z,15.10
2022-11-17T02:44:04.628Z,15.10
2022-11-17T02:46:45.306Z,15.09
2022-11-17T02:49:22.547Z,15.20
2022-11-17T02:51:51.523Z,15.12
2022-11-17T02:54:19.238Z,15.09
2022-11-17T02:56:45.977Z,15.08
2022-11-17T02:59:14.731Z,15.09
2022-11-17T03:02:04.777Z,15.09
2022-11-17T03:04:40.433Z,15.10
2022-11-17T03:07:22.603Z,15.11
2022-11-17T03:09:59.540Z,15.09
2022-11-17T03:12:29.221Z,15.09
2022-11-17T03:15:38.094Z,15.10
2022-11-17T03:18:21.389Z,15.09
2022-11-17T03:21:06.407Z,15.05
2022-11-17T03:23:39.501Z,15.02
2022-11-17T03:26:10.005Z,15.04
2022-11-17T03:28:36.577Z,15.14
2022-11-17T03:31:04.962Z,15.09
2022-11-17T03:33:32.154Z,15.08
2022-11-17T03:36:07.436Z,15.05
2022-11-17T03:38:37.916Z,15.01
2022-11-17T03:41:05.781Z,15.03
2022-11-17T03:43:32.840Z,15.03
2022-11-17T03:46:06.040Z,15.05
2022-11-17T03:48:50.274Z,15.06
2022-11-17T03:51:18.377Z,15.07
2022-11-17T03:53:46.151Z,15.05
2022-11-17T03:56:32.050Z,15.06
2022-11-17T03:59:02.854Z,15.05
2022-11-17T04:01:31.429Z,15.05
2022-11-17T04:03:58.166Z,15.06
2022-11-17T04:06:24.856Z,15.07
2022-11-17T04:08:51.651Z,15.09
2022-11-17T04:11:36.847Z,15.11
2022-11-17T04:14:22.124Z,15.10
2022-11-17T04:16:48.876Z,15.10
2022-11-17T04:19:15.549Z,15.09
2022-11-17T04:21:42.348Z,15.10
2022-11-17T04:24:09.085Z,15.10
2022-11-17T04:26:54.405Z,15.11
2022-11-17T04:29:21.238Z,15.11
2022-11-17T04:31:47.875Z,15.10
2022-11-17T04:34:14.658Z,15.11
2022-11-17T04:36:45.704Z,15.11
2022-11-17T04:39:14.113Z,15.11
2022-11-17T04:42:03.309Z,15.12
2022-11-17T04:44:31.592Z,15.10
2022-11-17T04:46:58.505Z,15.11
2022-11-17T04:49:26.141Z,15.13
2022-11-17T04:51:53.823Z,15.13
2022-11-17T04:54:24.536Z,15.10
2022-11-17T04:56:53.797Z,15.10
2022-11-17T04:59:20.616Z,15.10
2022-11-17T05:01:47.545Z,15.11
2022-11-17T05:04:36.442Z,15.10
2022-11-17T05:07:03.838Z,15.11
2022-11-17T05:09:30.503Z,15.11
2022-11-17T05:12:15.717Z,15.07
2022-11-17T05:14:42.546Z,15.03
2022-11-17T05:17:11.345Z,15.04
2022-11-17T05:19:40.478Z,15.06
2022-11-17T05:22:28.698Z,15.08
2022-11-17T05:24:56.415Z,15.11
2022-11-17T05:27:23.809Z,15.10
2022-11-17T05:29:50.649Z,15.12
2022-11-17T05:32:17.933Z,15.12
2022-11-17T05:34:44.825Z,15.12
2022-11-17T05:37:11.639Z,15.12
2022-11-17T05:39:38.393Z,15.14
2022-11-17T05:42:05.277Z,15.13
2022-11-17T05:44:32.010Z,15.13
2022-11-17T05:46:59.074Z,15.13
2022-11-17T05:49:25.817Z,15.12
2022-11-17T05:51:53.175Z,15.12
2022-11-17T05:54:20.529Z,15.12
2022-11-17T05:56:52.941Z,15.11
2022-11-17T05:59:47.326Z,15.10
2022-11-17T06:02:36.925Z,15.11
2022-11-17T06:05:04.031Z,15.11
2022-11-17T06:07:30.906Z,15.11
2022-11-17T06:09:57.715Z,15.11
2022-11-17T06:12:24.498Z,15.10
2022-11-17T06:14:51.269Z,15.12
2022-11-17T06:17:22.535Z,15.11
2022-11-17T06:19:54.141Z,15.12
2022-11-17T06:22:20.913Z,15.12
2022-11-17T06:24:47.678Z,15.11
2022-11-17T06:27:15.893Z,15.11
2022-11-17T06:29:44.923Z,15.11
2022-11-17T06:32:16.473Z,15.11
2022-11-17T06:34:43.921Z,15.11
2022-11-17T06:37:11.571Z,15.10
2022-11-17T06:39:38.345Z,15.08
2022-11-17T06:42:05.042Z,15.09
2022-11-17T06:44:31.809Z,15.11
2022-11-17T06:46:58.481Z,15.12
2022-11-17T06:49:25.261Z,15.12
2022-11-17T06:51:52.281Z,15.11
2022-11-17T06:54:19.072Z,15.12
2022-11-17T06:56:46.180Z,15.12
2022-11-17T06:59:14.383Z,15.10
2022-11-17T07:01:41.281Z,14.97
2022-11-17T07:04:08.922Z,14.62
2022-11-17T07:06:39.021Z,14.39
2022-11-17T07:09:05.852Z,14.24
2022-11-17T07:11:35.870Z,14.15
2022-11-17T07:14:03.351Z,14.17
2022-11-17T07:16:31.497Z,14.13
2022-11-17T07:18:59.381Z,14.13
2022-11-17T07:21:26.503Z,14.14
2022-11-17T07:23:53.285Z,14.09
2022-11-17T07:26:20.424Z,14.07
2022-11-17T07:28:47.223Z,13.98
2022-11-17T07:31:13.902Z,13.98
2022-11-17T07:33:40.670Z,13.93
2022-11-17T07:36:12.346Z,13.87
2022-11-17T07:38:40.662Z,13.92
2022-11-17T07:41:09.282Z,13.95
2022-11-17T07:43:36.728Z,13.91
2022-11-17T07:46:07.891Z,13.99
2022-11-17T07:48:35.260Z,14.03
2022-11-17T07:51:03.440Z,14.04
2022-11-17T07:53:31.658Z,13.99
2022-11-17T07:56:11.787Z,13.96
2022-11-17T07:58:39.368Z,13.88
2022-11-17T08:01:11.962Z,13.99
2022-11-17T08:03:38.934Z,14.06
2022-11-17T08:06:07.048Z,13.97
2022-11-17T08:08:34.924Z,14.02
2022-11-17T08:11:12.442Z,14.11
2022-11-17T08:13:40.393Z,14.12
2022-11-17T08:16:08.593Z,14.03
2022-11-17T08:18:37.598Z,14.01
2022-11-17T08:21:13.830Z,14.01
2022-11-17T08:23:43.701Z,14.01
2022-11-17T08:26:11.442Z,13.93
2022-11-17T08:28:38.847Z,13.93
2022-11-17T08:31:07.214Z,13.95
2022-11-17T08:33:34.060Z,13.92
2022-11-17T08:36:02.338Z,13.90
2022-11-17T08:38:29.394Z,13.92
2022-11-17T08:41:06.319Z,13.92
2022-11-17T08:43:33.300Z,13.84
2022-11-17T08:46:00.240Z,13.75
2022-11-17T08:48:27.022Z,13.75
2022-11-17T08:50:53.728Z,13.85
2022-11-17T08:53:22.352Z,13.86
2022-11-17T08:55:49.579Z,13.74
2022-11-17T08:58:16.792Z,13.74
2022-11-17T09:00:45.540Z,13.72
2022-11-17T09:03:12.421Z,13.84
2022-11-17T09:05:40.766Z,13.77
2022-11-17T09:08:38.057Z,13.80
2022-11-17T09:10:55.710Z,13.80
2022-11-17T09:13:22.437Z,13.65
2022-11-17T09:15:49.212Z,13.69
2022-11-17T09:18:16.068Z,13.68
2022-11-17T09:20:45.927Z,13.60
2022-11-17T09:23:12.990Z,13.47
2022-11-17T09:25:40.076Z,13.60
2022-11-17T09:28:06.953Z,13.67
2022-11-17T09:30:33.608Z,13.81
2022-11-17T09:33:00.507Z,13.91
2022-11-17T09:35:27.203Z,13.80
2022-11-17T09:37:58.936Z,13.79
2022-11-17T09:40:25.995Z,13.81
2022-11-17T09:42:52.691Z,13.96
2022-11-17T09:45:25.697Z,13.99
2022-11-17T09:48:12.361Z,13.94
2022-11-17T09:50:45.504Z,13.94
2022-11-17T09:53:16.120Z,13.93
2022-11-17T09:55:46.064Z,14.05
2022-11-17T09:58:22.703Z,14.10
2022-11-17T10:00:52.130Z,14.07
2022-11-17T10:03:21.953Z,14.31
2022-11-17T10:05:49.068Z,14.31
2022-11-17T10:08:19.137Z,14.42
2022-11-17T10:10:49.234Z,14.61
2022-11-17T10:13:28.362Z,14.80
2022-11-17T10:15:58.934Z,14.81
2022-11-17T10:18:26.011Z,14.76
2022-11-17T10:20:52.880Z,14.72
2022-11-17T10:23:20.373Z,14.90
2022-11-17T10:25:54.858Z,14.92
2022-11-17T10:28:32.772Z,15.02
2022-11-17T10:31:11.781Z,15.11
2022-11-17T10:33:56.909Z,15.22
2022-11-17T10:36:31.084Z,15.41
2022-11-17T10:38:59.584Z,15.52
2022-11-17T10:41:50.493Z,15.56
2022-11-17T10:44:22.662Z,15.59
2022-11-17T10:47:04.120Z,15.61
2022-11-17T10:49:35.975Z,15.66
2022-11-17T10:52:19.938Z,15.67
2022-11-17T10:54:49.926Z,15.78
2022-11-17T10:57:20.676Z,15.78
2022-11-17T10:59:56.705Z,15.69
2022-11-17T11:02:34.334Z,15.48
2022-11-17T11:05:10.892Z,15.40
2022-11-17T11:07:38.631Z,15.41
2022-11-17T11:10:15.904Z,15.31
2022-11-17T11:13:03.103Z,15.30
2022-11-17T11:15:36.575Z,15.31
2022-11-17T11:18:12.827Z,15.25
2022-11-17T11:21:18.299Z,15.11
2022-11-17T11:23:45.080Z,15.04
2022-11-17T11:26:22.684Z,14.91
2022-11-17T11:28:57.113Z,14.91
2022-11-17T11:31:35.911Z,15.00
2022-11-17T11:34:33.279Z,15.07
2022-11-17T11:37:13.795Z,15.10
2022-11-17T11:39:52.447Z,15.11
2022-11-17T11:42:37.723Z,15.12
2022-11-17T11:45:07.874Z,14.98
2022-11-17T11:47:55.581Z,15.02
2022-11-17T11:50:25.705Z,15.03
2022-11-17T11:52:59.718Z,15.17
2022-11-17T11:55:30.958Z,15.25
2022-11-17T11:58:23.220Z,15.30
2022-11-17T12:00:52.624Z,15.35
2022-11-17T12:03:26.501Z,15.43
2022-11-17T12:06:40.120Z,15.55
2022-11-17T12:09:28.548Z,15.59
2022-11-17T12:12:01.486Z,15.45
2022-11-17T12:14:33.087Z,15.37
2022-11-17T12:17:18.916Z,15.57
2022-11-17T12:19:57.192Z,15.84
2022-11-17T12:22:30.021Z,16.18
2022-11-17T12:24:59.155Z,16.31
2022-11-17T12:27:35.060Z,16.37
2022-11-17T12:30:04.981Z,16.36
2022-11-17T12:32:44.030Z,16.24
2022-11-17T12:35:29.980Z,16.11
2022-11-17T12:38:17.757Z,16.07
2022-11-17T12:40:51.386Z,15.82
2022-11-17T12:43:23.411Z,15.64
2022-11-17T12:46:23.976Z,15.72
2022-11-17T12:49:21.418Z,16.01
2022-11-17T12:51:57.725Z,16.14
2022-11-17T12:54:45.604Z,16.41
2022-11-17T12:57:17.498Z,16.59
2022-11-17T12:59:59.066Z,16.55
2022-11-17T13:02:54.405Z,16.65
2022-11-17T13:05:23.555Z,16.49
2022-11-17T13:07:50.700Z,16.30
2022-11-17T13:10:31.095Z,16.37
2022-11-17T13:13:10.761Z,16.30
2022-11-17T13:15:37.635Z,16.26
2022-11-17T13:18:10.802Z,16.42
2022-11-17T13:20:39.069Z,16.56
2022-11-17T13:23:18.610Z,16.40
2022-11-17T13:25:45.493Z,16.62
2022-11-17T13:28:27.151Z,16.85
2022-11-17T13:30:53.953Z,16.71
2022-11-17T13:33:23.066Z,16.73
2022-11-17T13:35:51.458Z,16.75
2022-11-17T13:38:21.125Z,16.68
2022-11-17T13:40:52.561Z,16.66
2022-11-17T13:43:21.608Z,16.74
2022-11-17T13:45:50.051Z,16.62
2022-11-17T13:48:37.962Z,16.45
2022-11-17T13:51:20.268Z,16.56
2022-11-17T13:53:59.696Z,16.53
2022-11-17T13:56:35.907Z,16.29
2022-11-17T13:59:06.636Z,16.22
2022-11-17T14:01:34.007Z,16.05
2022-11-17T14:04:19.343Z,15.91
2022-11-17T14:06:57.441Z,15.93
2022-11-17T14:09:26.407Z,15.98
2022-11-17T14:11:53.111Z,16.10
2022-11-17T14:14:28.624Z,16.25
2022-11-17T14:16:55.621Z,16.38
2022-11-17T14:19:31.921Z,16.37
2022-11-17T14:22:31.061Z,16.31
2022-11-17T14:24:58.422Z,16.13
2022-11-17T14:27:31.931Z,16.03
2022-11-17T14:29:58.784Z,15.94
2022-11-17T14:32:25.668Z,15.87
2022-11-17T14:34:52.573Z,15.66
2022-11-17T14:37:19.284Z,15.38
2022-11-17T14:39:46.051Z,15.31
2022-11-17T14:42:12.758Z,15.18
2022-11-17T14:44:39.545Z,15.14
2022-11-17T14:47:06.314Z,15.13
2022-11-17T14:49:33.083Z,15.05
2022-11-17T14:52:00.364Z,15.00
2022-11-17T14:54:27.124Z,14.94
2022-11-17T14:56:53.855Z,14.97
2022-11-17T14:59:20.561Z,14.96
2022-11-17T15:01:47.437Z,14.92
2022-11-17T15:04:48.902Z,14.96
2022-11-17T15:07:05.064Z,15.06
2022-11-17T15:09:31.970Z,15.09
2022-11-17T15:11:58.971Z,15.07
2022-11-17T15:14:25.769Z,15.08
2022-11-17T15:16:52.529Z,14.96
2022-11-17T15:19:19.296Z,14.93
2022-11-17T15:21:46.046Z,14.93
2022-11-17T15:24:13.170Z,14.86
2022-11-17T15:26:40.459Z,14.82
2022-11-17T15:29:07.209Z,14.74
2022-11-17T15:31:34.132Z,14.64
2022-11-17T15:34:01.243Z,14.70
2022-11-17T15:36:28.048Z,14.78
2022-11-17T15:38:55.070Z,14.76
2022-11-17T15:41:21.942Z,14.73
2022-11-17T15:43:48.677Z,14.70
2022-11-17T15:46:17.665Z,14.74
2022-11-17T15:48:46.121Z,14.72
2022-11-17T15:51:15.179Z,14.76
2022-11-17T15:53:42.662Z,14.76
2022-11-17T15:56:15.075Z,14.76
2022-11-17T15:58:42.809Z,14.81
2022-11-17T16:01:25.060Z,14.80
2022-11-17T16:03:53.041Z,14.80
2022-11-17T16:06:19.865Z,14.85
2022-11-17T16:08:46.899Z,14.84
2022-11-17T16:11:14.025Z,14.81
2022-11-17T16:13:40.774Z,14.86
2022-11-17T16:16:08.027Z,14.92
2022-11-17T16:18:35.462Z,14.88
2022-11-17T16:21:06.574Z,14.97
2022-11-17T16:23:50.018Z,15.08
2022-11-17T16:26:19.207Z,15.18
2022-11-17T16:28:48.649Z,15.26
2022-11-17T16:31:15.559Z,15.33
2022-11-17T16:33:49.290Z,15.38
2022-11-17T16:36:20.439Z,15.43
2022-11-17T16:39:01.001Z,15.49
2022-11-17T16:41:37.617Z,15.55
2022-11-17T16:44:12.571Z,15.59
2022-11-17T16:46:42.563Z,15.62
2022-11-17T16:49:12.117Z,15.66
2022-11-17T16:51:39.181Z,15.70
2022-11-17T16:54:07.129Z,15.71
2022-11-17T16:56:34.511Z,15.73
2022-11-17T16:59:01.301Z,15.76
2022-11-17T17:01:35.607Z,15.78
2022-11-17T17:04:05.712Z,15.80
2022-11-17T17:06:32.788Z,15.76
2022-11-17T17:09:03.069Z,15.74
2022-11-17T17:11:32.129Z,15.70
2022-11-17T17:14:01.557Z,15.70
2022-11-17T17:16:29.211Z,15.74
2022-11-17T17:18:56.890Z,15.77
2022-11-17T17:21:24.108Z,15.80
2022-11-17T17:23:51.367Z,15.83
2022-11-17T17:26:20.137Z,15.83
2022-11-17T17:28:49.360Z,15.83
2022-11-17T17:31:21.628Z,15.71
2022-11-17T17:33:50.480Z,15.67
2022-11-17T17:36:22.389Z,15.69
2022-11-17T17:38:54.968Z,15.73
2022-11-17T17:41:24.365Z,15.78
2022-11-17T17:44:04.898Z,15.77
2022-11-17T17:46:31.947Z,15.88
2022-11-17T17:48:58.735Z,15.83
2022-11-17T17:51:27.727Z,15.80
2022-11-17T17:53:55.976Z,15.80
2022-11-17T17:56:23.608Z,15.79
2022-11-17T17:58:51.860Z,15.78
2022-11-17T18:01:24.424Z,15.77
2022-11-17T18:03:53.873Z,15.78
2022-11-17T18:06:22.644Z,15.78
2022-11-17T18:08:49.628Z,15.78
2022-11-17T18:11:18.905Z,15.77
2022-11-17T18:13:47.671Z,15.78
2022-11-17T18:16:17.481Z,15.77
2022-11-17T18:18:46.798Z,15.78
2022-11-17T18:21:16.192Z,15.77
2022-11-17T18:23:43.574Z,15.77
2022-11-17T18:26:11.981Z,15.76
2022-11-17T18:28:40.113Z,15.76
2022-11-17T18:31:07.506Z,15.75
2022-11-17T18:33:34.532Z,15.73
2022-11-17T18:36:08.742Z,15.74
2022-11-17T18:38:37.148Z,15.74
2022-11-17T18:41:08.649Z,15.75
2022-11-17T18:43:38.514Z,15.74
2022-11-17T18:46:07.732Z,15.74
2022-11-17T18:48:45.490Z,15.72
2022-11-17T18:51:19.855Z,15.71
2022-11-17T18:53:50.258Z,15.71
2022-11-17T18:56:20.826Z,15.71
2022-11-17T18:58:47.456Z,15.80
2022-11-17T19:01:19.516Z,15.74
2022-11-17T19:03:49.508Z,15.70
2022-11-17T19:06:17.629Z,15.70
2022-11-17T19:08:44.743Z,15.68
2022-11-17T19:11:13.272Z,15.67
2022-11-17T19:13:41.655Z,15.67
2022-11-17T19:16:14.244Z,15.66
2022-11-17T19:18:41.744Z,15.67
2022-11-17T19:21:13.122Z,15.67
2022-11-17T19:23:42.620Z,15.66
2022-11-17T19:26:16.167Z,15.67
2022-11-17T19:28:43.865Z,15.66
2022-11-17T19:31:17.357Z,15.64
2022-11-17T19:33:45.168Z,15.65
2022-11-17T19:36:17.818Z,15.65
2022-11-17T19:38:45.846Z,15.64
2022-11-17T19:41:18.029Z,15.62
2022-11-17T19:43:45.798Z,15.64
2022-11-17T19:46:14.899Z,15.63
2022-11-17T19:48:42.889Z,15.64
2022-11-17T19:51:22.724Z,15.61
2022-11-17T19:53:51.695Z,15.61
2022-11-17T19:56:18.998Z,15.61
2022-11-17T19:58:46.414Z,15.61
2022-11-17T20:01:39.388Z,15.61
2022-11-17T20:04:07.470Z,15.60
2022-11-17T20:06:37.598Z,15.58
2022-11-17T20:09:09.303Z,15.58
2022-11-17T20:11:36.183Z,15.58
2022-11-17T20:14:03.211Z,15.57
2022-11-17T20:16:33.095Z,15.57
2022-11-17T20:19:01.698Z,15.56
2022-11-17T20:21:30.163Z,15.55
2022-11-17T20:23:58.960Z,15.56
2022-11-17T20:26:27.912Z,15.54
2022-11-17T20:28:55.298Z,15.54
2022-11-17T20:31:27.175Z,15.53
2022-11-17T20:34:00.781Z,15.54
2022-11-17T20:36:29.579Z,15.53
2022-11-17T20:38:58.557Z,15.52
2022-11-17T20:41:25.407Z,15.52
2022-11-17T20:43:57.191Z,15.52
2022-11-17T20:46:24.491Z,15.51
2022-11-17T20:48:51.550Z,15.52
2022-11-17T20:51:20.643Z,15.51
2022-11-17T20:53:47.794Z,15.50
2022-11-17T20:56:16.320Z,15.49
2022-11-17T20:58:43.595Z,15.49
2022-11-17T21:01:11.920Z,15.47
2022-11-17T21:03:39.135Z,15.48
2022-11-17T21:06:06.085Z,15.45
2022-11-17T21:08:35.071Z,15.45
2022-11-17T21:11:04.385Z,15.44
2022-11-17T21:13:33.006Z,15.43
2022-11-17T21:16:02.623Z,15.44
2022-11-17T21:18:29.352Z,15.44
2022-11-17T21:20:58.829Z,15.43
2022-11-17T21:23:26.770Z,15.43
2022-11-17T21:25:53.487Z,15.43
2022-11-17T21:28:20.388Z,15.43
2022-11-17T21:30:47.161Z,15.43
2022-11-17T21:33:13.991Z,15.43
2022-11-17T21:35:40.761Z,15.42
2022-11-17T21:38:07.626Z,15.41
2022-11-17T21:40:34.323Z,15.41
2022-11-17T21:43:01.120Z,15.42
2022-11-17T21:45:27.814Z,15.42
2022-11-17T21:47:59.183Z,15.43
2022-11-17T21:50:26.374Z,15.42
2022-11-17T21:52:53.036Z,15.43
2022-11-17T21:55:19.756Z,15.43
2022-11-17T21:57:50.141Z,15.41
2022-11-17T22:00:17.926Z,15.43
2022-11-17T22:02:44.615Z,15.42
2022-11-17T22:05:11.626Z,15.42
2022-11-17T22:07:38.407Z,15.42
2022-11-17T22:10:05.813Z,15.41
2022-11-17T22:12:32.505Z,15.41
2022-11-17T22:14:59.298Z,15.42
2022-11-17T22:17:26.069Z,15.42
2022-11-17T22:19:52.931Z,15.41
2022-11-17T22:22:19.612Z,15.40
2022-11-17T22:24:49.795Z,15.41
2022-11-17T22:27:17.151Z,15.41
2022-11-17T22:29:43.804Z,15.40
2022-11-17T22:32:10.736Z,15.40
2022-11-17T22:34:37.508Z,15.39
2022-11-17T22:37:04.511Z,15.39
2022-11-17T22:39:31.207Z,15.39
2022-11-17T22:41:58.004Z,15.39
2022-11-17T22:44:25.603Z,15.39
2022-11-17T22:46:52.438Z,15.38
2022-11-17T22:49:19.352Z,15.37
2022-11-17T22:52:04.511Z,15.37
2022-11-17T22:54:31.803Z,15.36
2022-11-17T22:56:58.832Z,15.36
2022-11-17T22:59:26.916Z,15.34
2022-11-17T23:01:54.026Z,15.35
2022-11-17T23:04:22.939Z,15.34
2022-11-17T23:06:49.649Z,15.35
2022-11-17T23:09:16.688Z,15.34
2022-11-17T23:11:43.844Z,15.34
2022-11-17T23:14:12.890Z,15.32
2022-11-17T23:16:40.056Z,15.32
2022-11-17T23:19:09.438Z,15.32
2022-11-17T23:21:36.213Z,15.33
2022-11-17T23:24:04.098Z,15.31
2022-11-17T23:26:30.843Z,15.30
2022-11-17T23:28:58.272Z,15.30
2022-11-17T23:31:27.191Z,15.30
2022-11-17T23:33:54.178Z,15.28
2022-11-17T23:36:21.723Z,15.28
2022-11-17T23:38:49.812Z,15.27
2022-11-17T23:41:19.444Z,15.28
2022-11-17T23:43:46.360Z,15.28
2022-11-17T23:46:15.198Z,15.26
2022-11-17T23:48:42.830Z,15.27
2022-11-17T23:51:12.152Z,15.26
2022-11-17T23:53:39.095Z,15.26
2022-11-17T23:56:06.552Z,15.27
2022-11-17T23:58:33.722Z,15.26
